createdAt,value
2018-04-18T00:01:32.812Z,11.90
2018-04-18T00:04:05.585Z,11.80
2018-04-18T00:06:38.535Z,11.80
2018-04-18T00:09:11.458Z,11.70
2018-04-18T00:11:44.140Z,11.70
2018-04-18T00:14:17.745Z,11.50
2018-04-18T00:16:50.531Z,11.50
2018-04-18T00:19:23.504Z,11.50
2018-04-18T00:21:56.503Z,11.50
2018-04-18T00:24:29.806Z,11.50
2018-04-18T00:27:03.158Z,11.50
2018-04-18T00:29:36.404Z,11.50
2018-04-18T00:32:09.008Z,11.50
2018-04-18T00:34:42.418Z,11.50
2018-04-18T00:37:15.833Z,11.50
2018-04-18T00:39:49.267Z,11.40
2018-04-18T00:42:22.129Z,11.40
2018-04-18T00:44:54.810Z,11.50
2018-04-18T00:47:27.610Z,11.40
2018-04-18T00:50:00.386Z,11.40
2018-04-18T00:52:34.070Z,11.40
2018-04-18T00:55:06.674Z,11.40
2018-04-18T00:57:39.212Z,11.40
2018-04-18T01:00:11.771Z,11.40
2018-04-18T01:02:45.140Z,11.40
2018-04-18T01:05:17.605Z,11.40
2018-04-18T01:07:50.253Z,11.40
2018-04-18T01:10:23.431Z,11.40
2018-04-18T01:12:55.918Z,11.30
2018-04-18T01:15:28.655Z,11.30
2018-04-18T01:18:01.225Z,11.30
2018-04-18T01:20:34.264Z,11.30
2018-04-18T01:23:08.060Z,11.30
2018-04-18T01:25:40.701Z,11.20
2018-04-18T01:28:13.676Z,11.30
2018-04-18T01:30:46.386Z,11.20
2018-04-18T01:33:19.301Z,11.20
2018-04-18T01:35:52.072Z,11.10
2018-04-18T01:38:24.797Z,11.00
2018-04-18T01:40:57.636Z,11.00
2018-04-18T01:43:30.225Z,10.90
2018-04-18T01:46:03.311Z,10.80
2018-04-18T01:48:35.804Z,10.90
2018-04-18T01:51:09.596Z,10.80
2018-04-18T01:53:43.041Z,10.70
2018-04-18T01:56:15.891Z,10.70
2018-04-18T01:58:48.739Z,10.70
2018-04-18T02:01:22.116Z,10.60
2018-04-18T02:03:55.079Z,10.60
2018-04-18T02:06:28.035Z,10.60
2018-04-18T02:09:01.453Z,10.60
2018-04-18T02:11:33.946Z,10.60
2018-04-18T02:14:06.864Z,10.60
2018-04-18T02:16:39.646Z,10.60
2018-04-18T02:19:12.859Z,10.50
2018-04-18T02:21:45.480Z,10.50
2018-04-18T02:24:18.420Z,10.40
2018-04-18T02:26:51.076Z,10.40
2018-04-18T02:29:24.333Z,10.40
2018-04-18T02:31:57.404Z,10.30
2018-04-18T02:34:29.938Z,10.30
2018-04-18T02:37:02.684Z,10.30
2018-04-18T02:39:35.624Z,10.30
2018-04-18T02:42:08.611Z,10.20
2018-04-18T02:44:41.408Z,10.20
2018-04-18T02:47:14.278Z,10.30
2018-04-18T02:49:46.962Z,10.30
2018-04-18T02:52:19.842Z,10.30
2018-04-18T02:54:52.530Z,10.20
2018-04-18T02:57:25.237Z,10.30
2018-04-18T02:59:58.058Z,10.20
2018-04-18T03:02:31.622Z,10.10
2018-04-18T03:05:04.674Z,10.10
2018-04-18T03:07:37.147Z,10.00
2018-04-18T03:10:10.027Z,9.90
2018-04-18T03:12:42.733Z,9.90
2018-04-18T03:15:15.898Z,9.80
2018-04-18T03:17:50.134Z,9.80
2018-04-18T03:20:23.035Z,9.80
2018-04-18T03:22:55.683Z,9.80
2018-04-18T03:25:28.462Z,9.90
2018-04-18T03:28:01.354Z,9.90
2018-04-18T03:30:33.963Z,9.90
2018-04-18T03:33:06.837Z,9.90
2018-04-18T03:35:39.299Z,9.80
2018-04-18T03:38:12.923Z,9.70
2018-04-18T03:40:52.235Z,9.70
2018-04-18T03:43:25.494Z,9.70
2018-04-18T03:45:59.234Z,9.60
2018-04-18T03:48:31.691Z,9.60
2018-04-18T03:51:04.200Z,9.50
2018-04-18T03:53:36.853Z,9.40
2018-04-18T03:56:09.938Z,9.40
2018-04-18T03:58:42.769Z,9.30
2018-04-18T04:01:16.008Z,9.30
2018-04-18T04:03:48.514Z,9.30
2018-04-18T04:06:21.312Z,9.20
2018-04-18T04:08:54.028Z,9.20
2018-04-18T04:11:26.562Z,9.20
2018-04-18T04:13:59.599Z,9.10
2018-04-18T04:16:44.882Z,9.10
2018-04-18T04:19:30.060Z,9.10
2018-04-18T04:22:15.284Z,9.10
2018-04-18T04:24:48.590Z,9.00
2018-04-18T04:27:21.402Z,8.90
2018-04-18T04:29:54.794Z,8.90
2018-04-18T04:32:27.909Z,8.90
2018-04-18T04:35:00.882Z,8.90
2018-04-18T04:37:33.670Z,8.80
2018-04-18T04:40:06.875Z,8.80
2018-04-18T04:42:39.613Z,8.80
2018-04-18T04:45:12.954Z,8.80
2018-04-18T04:47:46.031Z,8.80
2018-04-18T04:50:19.319Z,9.00
2018-04-18T04:52:51.838Z,8.90
2018-04-18T04:55:25.060Z,9.10
2018-04-18T04:57:57.477Z,9.10
2018-04-18T05:00:30.095Z,9.20
2018-04-18T05:03:02.807Z,9.30
2018-04-18T05:05:35.325Z,9.30
2018-04-18T05:08:08.254Z,9.40
2018-04-18T05:10:41.775Z,9.40
2018-04-18T05:13:15.227Z,9.40
2018-04-18T05:15:47.729Z,9.40
2018-04-18T05:18:20.100Z,9.50
2018-04-18T05:20:53.191Z,9.50
2018-04-18T05:23:25.894Z,9.50
2018-04-18T05:25:59.075Z,9.70
2018-04-18T05:28:31.426Z,9.70
2018-04-18T05:31:03.851Z,9.80
2018-04-18T05:33:36.601Z,9.90
2018-04-18T05:36:09.074Z,9.90
2018-04-18T05:38:41.669Z,10.00
2018-04-18T05:41:14.132Z,10.10
2018-04-18T05:43:47.295Z,10.40
2018-04-18T05:46:20.451Z,10.50
2018-04-18T05:48:52.912Z,10.50
2018-04-18T05:51:25.462Z,10.60
2018-04-18T05:53:57.805Z,10.70
2018-04-18T05:56:30.175Z,10.80
2018-04-18T05:59:02.805Z,11.00
2018-04-18T06:01:35.229Z,11.10
2018-04-18T06:04:07.675Z,11.20
2018-04-18T06:06:40.451Z,11.30
2018-04-18T06:09:12.939Z,11.30
2018-04-18T06:11:45.457Z,11.50
2018-04-18T06:14:19.446Z,11.70
2018-04-18T06:16:52.701Z,11.70
2018-04-18T06:19:25.945Z,11.80
2018-04-18T06:21:58.425Z,12.00
2018-04-18T06:24:31.577Z,12.20
2018-04-18T06:27:04.290Z,12.20
2018-04-18T06:29:37.264Z,12.40
2018-04-18T06:32:09.787Z,12.60
2018-04-18T06:34:42.183Z,12.70
2018-04-18T06:37:14.691Z,12.80
2018-04-18T06:39:48.391Z,13.10
2018-04-18T06:42:20.930Z,13.10
2018-04-18T06:44:53.672Z,13.30
2018-04-18T06:47:26.096Z,13.50
2018-04-18T06:49:59.600Z,13.80
2018-04-18T06:52:32.200Z,13.70
2018-04-18T06:55:05.548Z,14.10
2018-04-18T06:57:38.028Z,14.10
2018-04-18T07:00:10.368Z,14.30
2018-04-18T07:02:43.484Z,14.60
2018-04-18T07:05:15.824Z,14.60
2018-04-18T07:07:48.407Z,14.80
2018-04-18T07:10:21.567Z,15.00
2018-04-18T07:12:54.800Z,15.20
2018-04-18T07:15:27.268Z,15.30
2018-04-18T07:17:59.756Z,15.50
2018-04-18T07:20:33.163Z,15.70
2018-04-18T07:23:05.782Z,15.70
2018-04-18T07:25:38.282Z,15.90
2018-04-18T07:28:10.851Z,16.00
2018-04-18T07:30:43.433Z,16.20
2018-04-18T07:33:15.996Z,16.30
2018-04-18T07:35:48.834Z,16.40
2018-04-18T07:38:21.491Z,16.50
2018-04-18T07:40:54.073Z,16.70
2018-04-18T07:43:26.521Z,16.80
2018-04-18T07:45:59.677Z,17.00
2018-04-18T07:48:32.282Z,17.00
2018-04-18T07:51:05.096Z,17.10
2018-04-18T07:53:37.686Z,17.20
2018-04-18T07:56:10.219Z,17.30
2018-04-18T07:58:43.552Z,17.50
2018-04-18T08:01:17.061Z,17.50
2018-04-18T08:03:50.228Z,17.70
2018-04-18T08:06:22.606Z,17.70
2018-04-18T08:08:55.038Z,17.70
2018-04-18T08:11:27.692Z,17.80
2018-04-18T08:14:00.408Z,18.00
2018-04-18T08:16:32.973Z,18.00
2018-04-18T08:19:05.528Z,18.10
2018-04-18T08:21:38.286Z,18.20
2018-04-18T08:24:11.048Z,18.30
2018-04-18T08:26:43.716Z,18.40
2018-04-18T08:29:16.184Z,18.50
2018-04-18T08:31:48.608Z,18.50
2018-04-18T08:34:21.291Z,18.70
2018-04-18T08:36:53.929Z,18.80
2018-04-18T08:39:26.563Z,18.90
2018-04-18T08:41:59.071Z,18.90
2018-04-18T08:44:31.621Z,19.00
2018-04-18T08:47:04.048Z,19.10
2018-04-18T08:49:36.588Z,19.10
2018-04-18T08:52:16.292Z,19.30
2018-04-18T08:54:48.916Z,19.40
2018-04-18T08:57:22.103Z,19.80
2018-04-18T08:59:55.221Z,19.70
2018-04-18T09:02:27.749Z,19.90
2018-04-18T09:05:00.227Z,20.00
2018-04-18T09:07:32.950Z,20.20
2018-04-18T09:10:05.596Z,20.30
2018-04-18T09:12:38.281Z,20.40
2018-04-18T09:15:10.792Z,20.50
2018-04-18T09:17:43.371Z,20.50
2018-04-18T09:20:15.716Z,20.60
2018-04-18T09:22:48.240Z,20.60
2018-04-18T09:25:20.694Z,20.80
2018-04-18T09:27:53.226Z,20.80
2018-04-18T09:30:26.511Z,21.00
2018-04-18T09:32:59.977Z,21.20
2018-04-18T09:35:32.479Z,21.20
2018-04-18T09:38:05.572Z,21.30
2018-04-18T09:40:37.956Z,21.40
2018-04-18T09:43:10.487Z,21.60
2018-04-18T09:45:43.096Z,21.80
2018-04-18T09:48:16.543Z,22.00
2018-04-18T09:50:49.187Z,22.00
2018-04-18T09:53:21.762Z,22.10
2018-04-18T09:55:54.276Z,22.20
2018-04-18T09:58:27.099Z,22.20
2018-04-18T10:00:59.612Z,22.30
2018-04-18T10:03:32.992Z,22.40
2018-04-18T10:06:05.550Z,22.40
2018-04-18T10:08:39.542Z,22.30
2018-04-18T10:11:12.991Z,22.50
2018-04-18T10:13:45.533Z,22.50
2018-04-18T10:16:18.133Z,22.70
2018-04-18T10:18:50.736Z,22.80
2018-04-18T10:21:23.891Z,23.00
2018-04-18T10:23:56.570Z,23.00
2018-04-18T10:26:29.190Z,23.10
2018-04-18T10:29:01.956Z,23.20
2018-04-18T10:31:35.834Z,23.20
2018-04-18T10:34:08.306Z,23.20
2018-04-18T10:36:41.870Z,23.30
2018-04-18T10:39:14.565Z,23.30
2018-04-18T10:41:47.240Z,23.30
2018-04-18T10:44:19.746Z,23.40
2018-04-18T10:46:52.901Z,23.40
2018-04-18T10:49:26.279Z,23.50
2018-04-18T10:51:58.950Z,23.50
2018-04-18T10:54:32.086Z,23.50
2018-04-18T10:57:04.556Z,23.50
2018-04-18T10:59:37.277Z,23.50
2018-04-18T11:02:09.904Z,23.40
2018-04-18T11:04:42.429Z,23.40
2018-04-18T11:07:15.130Z,23.50
2018-04-18T11:09:47.652Z,23.50
2018-04-18T11:12:20.942Z,23.70
2018-04-18T11:14:54.191Z,23.90
2018-04-18T11:17:26.818Z,23.90
2018-04-18T11:19:59.293Z,24.00
2018-04-18T11:22:31.932Z,24.00
2018-04-18T11:25:04.670Z,24.00
2018-04-18T11:27:37.257Z,24.10
2018-04-18T11:30:10.926Z,24.10
2018-04-18T11:32:43.331Z,24.20
2018-04-18T11:35:15.722Z,24.30
2018-04-18T11:37:48.126Z,24.30
2018-04-18T11:40:20.852Z,24.30
2018-04-18T11:42:53.896Z,24.30
2018-04-18T11:45:26.597Z,24.30
2018-04-18T11:47:59.199Z,24.40
2018-04-18T11:50:31.559Z,24.40
2018-04-18T11:53:04.183Z,24.50
2018-04-18T11:55:36.506Z,24.60
2018-04-18T11:58:09.201Z,24.70
2018-04-18T12:00:41.754Z,24.70
2018-04-18T12:03:15.052Z,24.80
2018-04-18T12:05:48.243Z,24.90
2018-04-18T12:08:20.823Z,24.90
2018-04-18T12:10:53.185Z,24.90
2018-04-18T12:13:25.998Z,25.00
2018-04-18T12:15:59.213Z,25.10
2018-04-18T12:18:31.680Z,25.20
2018-04-18T12:21:04.112Z,25.20
2018-04-18T12:23:36.847Z,25.30
2018-04-18T12:26:09.353Z,25.30
2018-04-18T12:28:41.864Z,25.40
2018-04-18T12:31:14.929Z,25.40
2018-04-18T12:33:47.398Z,25.40
2018-04-18T12:36:20.209Z,25.50
2018-04-18T12:38:52.749Z,25.70
2018-04-18T12:41:25.251Z,25.80
2018-04-18T12:43:57.837Z,25.90
2018-04-18T12:46:31.132Z,26.20
2018-04-18T12:49:05.148Z,26.20
2018-04-18T12:51:38.401Z,26.40
2018-04-18T12:54:11.641Z,26.40
2018-04-18T12:56:44.113Z,26.40
2018-04-18T12:59:17.525Z,26.80
2018-04-18T13:01:50.774Z,26.70
2018-04-18T13:04:23.255Z,27.10
2018-04-18T13:06:55.731Z,27.20
2018-04-18T13:09:29.575Z,28.80
2018-04-18T13:12:02.117Z,28.70
2018-04-18T13:14:34.716Z,29.90
2018-04-18T13:17:07.313Z,31.20
2018-04-18T13:19:39.801Z,32.40
2018-04-18T13:22:12.584Z,33.30
2018-04-18T13:24:45.095Z,33.90
2018-04-18T13:27:17.449Z,34.70
2018-04-18T13:29:49.875Z,35.20
2018-04-18T13:32:22.404Z,35.70
2018-04-18T13:34:54.864Z,36.50
2018-04-18T13:37:27.456Z,37.40
2018-04-18T13:40:00.741Z,37.90
2018-04-18T13:42:33.250Z,37.90
2018-04-18T13:45:05.887Z,37.10
2018-04-18T13:47:38.380Z,37.20
2018-04-18T13:50:11.181Z,37.50
2018-04-18T13:52:43.687Z,37.80
2018-04-18T13:55:16.526Z,37.40
2018-04-18T13:57:49.881Z,36.20
2018-04-18T14:00:22.250Z,36.10
2018-04-18T14:02:54.705Z,35.50
2018-04-18T14:05:27.137Z,34.80
2018-04-18T14:08:00.042Z,34.50
2018-04-18T14:10:33.350Z,33.80
2018-04-18T14:13:07.475Z,32.80
2018-04-18T14:15:40.718Z,32.60
2018-04-18T14:18:14.671Z,32.30
2018-04-18T14:20:47.969Z,32.10
2018-04-18T14:23:20.443Z,32.00
2018-04-18T14:25:52.991Z,31.90
2018-04-18T14:28:26.188Z,31.50
2018-04-18T14:30:58.672Z,31.60
2018-04-18T14:33:31.238Z,31.80
2018-04-18T14:36:04.553Z,31.90
2018-04-18T14:38:37.002Z,32.00
2018-04-18T14:41:09.407Z,31.80
2018-04-18T14:43:42.749Z,31.60
2018-04-18T14:46:15.308Z,31.60
2018-04-18T14:48:47.617Z,31.60
2018-04-18T14:51:19.942Z,31.30
2018-04-18T14:53:53.051Z,30.80
2018-04-18T14:56:26.251Z,30.40
2018-04-18T14:58:59.662Z,30.50
2018-04-18T15:01:32.211Z,30.40
2018-04-18T15:04:04.896Z,30.60
2018-04-18T15:06:38.240Z,31.20
2018-04-18T15:09:10.975Z,31.20
2018-04-18T15:11:43.613Z,31.60
2018-04-18T15:14:16.488Z,31.80
2018-04-18T15:16:48.961Z,31.70
2018-04-18T15:19:21.556Z,31.60
2018-04-18T15:21:54.334Z,31.30
2018-04-18T15:24:26.960Z,30.80
2018-04-18T15:26:59.470Z,30.90
2018-04-18T15:29:32.172Z,31.10
2018-04-18T15:32:04.751Z,31.50
2018-04-18T15:34:37.862Z,31.40
2018-04-18T15:37:11.113Z,31.20
2018-04-18T15:39:44.265Z,30.80
2018-04-18T15:42:17.860Z,30.80
2018-04-18T15:44:50.368Z,30.50
2018-04-18T15:47:23.023Z,30.30
2018-04-18T15:49:55.528Z,30.50
2018-04-18T15:52:27.936Z,30.70
2018-04-18T15:55:00.765Z,30.70
2018-04-18T15:57:33.314Z,30.80
2018-04-18T16:00:06.038Z,30.70
2018-04-18T16:02:39.343Z,30.90
2018-04-18T16:05:12.094Z,30.90
2018-04-18T16:07:44.639Z,31.00
2018-04-18T16:10:17.337Z,31.30
2018-04-18T16:12:49.895Z,31.50
2018-04-18T16:15:23.153Z,32.30
2018-04-18T16:17:56.657Z,32.20
2018-04-18T16:20:29.115Z,32.40
2018-04-18T16:23:01.581Z,32.80
2018-04-18T16:25:34.353Z,33.20
2018-04-18T16:28:06.792Z,33.70
2018-04-18T16:30:40.527Z,33.80
2018-04-18T16:33:13.083Z,33.90
2018-04-18T16:35:45.587Z,33.90
2018-04-18T16:38:18.908Z,34.10
2018-04-18T16:40:51.413Z,34.60
2018-04-18T16:43:24.914Z,36.30
2018-04-18T16:45:58.198Z,36.30
2018-04-18T16:48:30.685Z,36.20
2018-04-18T16:51:03.295Z,35.60
2018-04-18T16:53:35.709Z,34.30
2018-04-18T16:56:08.935Z,31.60
2018-04-18T16:58:42.283Z,30.50
2018-04-18T17:01:14.869Z,30.40
2018-04-18T17:03:47.939Z,29.50
2018-04-18T17:06:21.510Z,27.90
2018-04-18T17:08:54.218Z,27.90
2018-04-18T17:11:27.568Z,27.30
2018-04-18T17:14:00.139Z,26.90
2018-04-18T17:16:32.835Z,26.50
2018-04-18T17:19:05.283Z,26.20
2018-04-18T17:21:37.893Z,25.90
2018-04-18T17:24:10.479Z,25.50
2018-04-18T17:26:43.055Z,25.30
2018-04-18T17:29:15.618Z,25.00
2018-04-18T17:31:48.357Z,24.80
2018-04-18T17:34:20.825Z,24.60
2018-04-18T17:36:53.265Z,24.50
2018-04-18T17:39:25.892Z,24.30
2018-04-18T17:41:58.524Z,24.10
2018-04-18T17:44:31.240Z,23.90
2018-04-18T17:47:04.148Z,23.80
2018-04-18T17:49:37.720Z,23.40
2018-04-18T17:52:10.407Z,23.40
2018-04-18T17:54:42.885Z,23.20
2018-04-18T17:57:16.313Z,22.90
2018-04-18T17:59:48.899Z,22.90
2018-04-18T18:02:21.547Z,22.70
2018-04-18T18:04:54.288Z,22.60
2018-04-18T18:07:27.448Z,22.50
2018-04-18T18:10:00.009Z,22.30
2018-04-18T18:12:32.604Z,22.10
2018-04-18T18:15:05.221Z,22.00
2018-04-18T18:17:37.954Z,21.90
2018-04-18T18:20:10.423Z,21.70
2018-04-18T18:22:42.874Z,21.60
2018-04-18T18:25:15.638Z,21.50
2018-04-18T18:27:48.264Z,21.40
2018-04-18T18:30:21.065Z,21.30
2018-04-18T18:32:54.413Z,21.00
2018-04-18T18:35:27.091Z,21.00
2018-04-18T18:37:59.903Z,20.90
2018-04-18T18:40:33.215Z,20.60
2018-04-18T18:43:05.819Z,20.60
2018-04-18T18:45:39.294Z,20.30
2018-04-18T18:48:12.749Z,20.10
2018-04-18T18:50:45.584Z,20.10
2018-04-18T18:53:18.394Z,19.90
2018-04-18T18:55:51.196Z,19.80
2018-04-18T18:58:23.999Z,19.70
2018-04-18T19:00:56.865Z,19.60
2018-04-18T19:03:30.153Z,19.40
2018-04-18T19:06:02.772Z,19.40
2018-04-18T19:08:35.370Z,19.30
2018-04-18T19:11:08.091Z,19.20
2018-04-18T19:13:40.736Z,19.10
2018-04-18T19:16:13.360Z,19.00
2018-04-18T19:18:46.235Z,19.00
2018-04-18T19:21:18.678Z,18.90
2018-04-18T19:23:51.793Z,18.70
2018-04-18T19:26:24.979Z,18.70
2018-04-18T19:28:57.450Z,18.70
2018-04-18T19:31:30.305Z,18.60
2018-04-18T19:34:03.708Z,18.40
2018-04-18T19:36:36.424Z,18.30
2018-04-18T19:39:09.160Z,18.30
2018-04-18T19:41:41.715Z,18.20
2018-04-18T19:44:14.604Z,18.10
2018-04-18T19:46:47.198Z,18.00
2018-04-18T19:49:19.870Z,18.00
2018-04-18T19:51:52.702Z,17.90
2018-04-18T19:54:25.338Z,17.80
2018-04-18T19:56:57.738Z,17.70
2018-04-18T19:59:31.200Z,17.60
2018-04-18T20:02:03.835Z,17.60
2018-04-18T20:04:37.256Z,17.50
2018-04-18T20:07:10.740Z,17.50
2018-04-18T20:09:43.428Z,17.50
2018-04-18T20:12:15.975Z,17.50
2018-04-18T20:14:48.413Z,17.40
2018-04-18T20:17:21.731Z,17.30
2018-04-18T20:19:54.190Z,17.20
2018-04-18T20:22:26.763Z,17.20
2018-04-18T20:24:59.298Z,17.00
2018-04-18T20:27:31.969Z,16.90
2018-04-18T20:30:04.769Z,16.90
2018-04-18T20:32:37.734Z,16.80
2018-04-18T20:35:10.376Z,16.80
2018-04-18T20:37:43.006Z,16.70
2018-04-18T20:40:16.398Z,16.60
2018-04-18T20:42:56.482Z,16.50
2018-04-18T20:45:28.965Z,16.40
2018-04-18T20:48:02.274Z,16.40
2018-04-18T20:50:34.798Z,16.40
2018-04-18T20:53:07.444Z,16.40
2018-04-18T20:55:39.833Z,16.40
2018-04-18T20:58:12.318Z,16.30
2018-04-18T21:00:44.993Z,16.30
2018-04-18T21:03:17.537Z,16.30
2018-04-18T21:05:50.239Z,16.20
2018-04-18T21:08:22.744Z,16.20
2018-04-18T21:10:57.008Z,16.10
2018-04-18T21:13:29.379Z,16.10
2018-04-18T21:16:02.714Z,15.90
2018-04-18T21:18:35.584Z,15.90
2018-04-18T21:21:08.183Z,15.80
2018-04-18T21:23:40.652Z,15.70
2018-04-18T21:26:13.504Z,15.60
2018-04-18T21:28:46.013Z,15.60
2018-04-18T21:31:18.890Z,15.60
2018-04-18T21:33:51.331Z,15.60
2018-04-18T21:36:24.610Z,15.50
2018-04-18T21:38:57.156Z,15.50
2018-04-18T21:41:29.773Z,15.50
2018-04-18T21:44:02.209Z,15.40
2018-04-18T21:46:35.063Z,15.40
2018-04-18T21:49:08.671Z,15.30
2018-04-18T21:51:41.075Z,15.30
2018-04-18T21:54:13.604Z,15.30
2018-04-18T21:56:46.663Z,15.30
2018-04-18T21:59:19.341Z,15.30
2018-04-18T22:01:51.759Z,15.20
2018-04-18T22:04:25.006Z,15.20
2018-04-18T22:06:58.394Z,15.20
2018-04-18T22:09:31.101Z,15.10
2018-04-18T22:12:03.667Z,15.10
2018-04-18T22:14:36.207Z,15.00
2018-04-18T22:17:08.673Z,15.00
2018-04-18T22:19:41.187Z,14.90
2018-04-18T22:22:13.777Z,14.90
2018-04-18T22:24:46.377Z,14.90
2018-04-18T22:27:18.780Z,14.90
2018-04-18T22:29:51.192Z,14.80
2018-04-18T22:32:23.867Z,14.80
2018-04-18T22:34:56.382Z,14.70
2018-04-18T22:37:28.988Z,14.70
2018-04-18T22:40:01.664Z,14.70
2018-04-18T22:42:34.057Z,14.70
2018-04-18T22:45:06.471Z,14.70
2018-04-18T22:47:38.938Z,14.70
2018-04-18T22:50:11.596Z,14.70
2018-04-18T22:52:45.114Z,14.60
2018-04-18T22:55:17.673Z,14.60
2018-04-18T22:57:50.799Z,14.60
2018-04-18T23:00:23.278Z,14.50
2018-04-18T23:02:56.490Z,14.50
2018-04-18T23:05:29.083Z,14.50
2018-04-18T23:08:01.749Z,14.40
2018-04-18T23:10:35.101Z,14.40
2018-04-18T23:13:07.559Z,14.40
2018-04-18T23:15:40.348Z,14.30
2018-04-18T23:18:12.807Z,14.10
2018-04-18T23:20:45.438Z,14.00
2018-04-18T23:23:17.929Z,14.00
2018-04-18T23:25:50.352Z,14.00
2018-04-18T23:28:23.748Z,13.90
2018-04-18T23:30:56.904Z,13.90
2018-04-18T23:33:29.354Z,13.90
2018-04-18T23:36:02.646Z,13.80
2018-04-18T23:38:35.268Z,13.80
2018-04-18T23:41:07.870Z,13.80
2018-04-18T23:43:41.207Z,13.70
2018-04-18T23:46:13.906Z,13.70
2018-04-18T23:48:46.258Z,13.70
2018-04-18T23:51:18.699Z,13.70
2018-04-18T23:53:51.327Z,13.70
2018-04-18T23:56:23.910Z,13.70
2018-04-18T23:58:56.348Z,13.70
